Time;durP1;ratioP1;P1;durP2;ratioP2;P2;SDS_P1;SDS_P2;PMS_P1;PMS_P2;Temp;Humidity;BMP_temperature;BMP_pressure;BME280_temperature;BME280_humidity;BME280_pressure;Samples;Min_cycle;Max_cycle;Signal;HPM_P1;HPM_P2
2021/05/23 00:02:10;;;;;;;3.75;0.98;;;9.90;96.50;;;;;;4954708;28;20072;-81
2021/05/23 00:04:36;;;;;;;1.20;0.90;;;9.90;96.40;;;;;;4982174;28;20088;-81
2021/05/23 00:07:01;;;;;;;1.30;1.10;;;9.90;96.50;;;;;;4971073;28;20035;-82
2021/05/23 00:09:27;;;;;;;3.08;1.13;;;9.90;96.40;;;;;;4977785;28;20033;-81
2021/05/23 00:11:52;;;;;;;3.75;1.02;;;9.90;96.60;;;;;;4967245;28;20041;-80
2021/05/23 00:14:18;;;;;;;2.35;1.23;;;9.80;96.80;;;;;;4981767;28;20026;-80
2021/05/23 00:16:44;;;;;;;2.45;0.90;;;9.80;96.60;;;;;;4985733;28;20025;-80
2021/05/23 00:19:10;;;;;;;1.88;1.17;;;9.80;96.60;;;;;;4960053;28;20058;-80
2021/05/23 00:21:35;;;;;;;1.90;1.30;;;9.80;96.80;;;;;;4966849;28;20026;-80
2021/05/23 00:24:01;;;;;;;2.10;1.10;;;9.70;96.80;;;;;;4976149;28;20034;-80
2021/05/23 00:26:26;;;;;;;0.35;0.30;;;9.70;96.90;;;;;;4994970;28;20038;-80
2021/05/23 00:28:53;;;;;;;1.55;1.20;;;9.70;96.80;;;;;;4959984;28;20027;-80
2021/05/23 00:31:18;;;;;;;5.15;1.40;;;9.80;96.70;;;;;;4977891;28;20027;-80
2021/05/23 00:33:44;;;;;;;3.08;1.23;;;9.70;96.70;;;;;;4969764;28;20085;-80
2021/05/23 00:36:09;;;;;;;2.65;1.40;;;9.70;96.80;;;;;;4990246;28;20058;-81
2021/05/23 00:38:35;;;;;;;2.83;1.42;;;9.70;97.00;;;;;;4990684;28;20118;-80
2021/05/23 00:41:00;;;;;;;3.38;0.85;;;9.60;97.10;;;;;;4992768;28;20038;-79
2021/05/23 00:43:26;;;;;;;4.93;1.33;;;9.60;97.10;;;;;;4966001;28;20037;-80
2021/05/23 00:45:52;;;;;;;2.53;1.42;;;9.60;97.10;;;;;;4970534;28;20023;-80
2021/05/23 00:48:18;;;;;;;3.95;2.35;;;9.70;97.10;;;;;;4995739;28;20106;-80
2021/05/23 00:50:44;;;;;;;3.00;1.17;;;9.60;97.20;;;;;;4985141;28;20042;-80
2021/05/23 00:53:11;;;;;;;3.00;1.20;;;9.60;97.20;;;;;;4976967;28;20154;-81
2021/05/23 00:55:36;;;;;;;4.22;1.38;;;9.60;97.30;;;;;;4981923;28;20104;-80
2021/05/23 00:58:02;;;;;;;2.65;1.38;;;9.50;97.30;;;;;;4994902;28;20498;-80
2021/05/23 01:00:40;;;;;;;1.08;0.52;;;9.60;97.10;;;;;;4964903;28;20033;-80
2021/05/23 01:03:28;;;;;;;2.30;1.75;;;9.60;97.20;;;;;;4998012;28;20053;-80
2021/05/23 01:06:00;;;;;;;5.13;1.42;;;9.60;97.30;;;;;;4999955;28;20095;-80
2021/05/23 01:08:26;;;;;;;4.15;1.60;;;9.50;97.30;;;;;;4998086;28;20117;-80
2021/05/23 01:11:02;;;;;;;2.72;1.38;;;9.50;97.20;;;;;;4986055;28;20072;-80
2021/05/23 01:13:55;;;;;;;3.30;1.38;;;9.60;97.00;;;;;;4982186;28;20043;-80
2021/05/23 01:16:34;;;;;;;2.13;1.63;;;9.60;97.20;;;;;;5002758;28;20042;-80
2021/05/23 01:19:07;;;;;;;2.00;0.77;;;9.60;97.20;;;;;;4972051;28;20053;-80
2021/05/23 01:21:38;;;;;;;2.35;0.75;;;9.60;97.10;;;;;;4964468;28;20580;-80
2021/05/23 01:24:06;;;;;;;0.70;0.70;;;9.60;97.10;;;;;;4982844;28;20034;-80
2021/05/23 01:26:38;;;;;;;3.25;1.70;;;9.50;97.00;;;;;;4985789;28;20038;-80
2021/05/23 01:29:08;;;;;;;3.60;2.17;;;9.50;97.10;;;;;;4996771;28;20053;-80
2021/05/23 01:31:33;;;;;;;2.92;1.40;;;9.50;96.90;;;;;;4981624;28;20084;-80
2021/05/23 01:33:59;;;;;;;3.05;1.25;;;9.50;97.10;;;;;;4975387;28;20043;-81
2021/05/23 01:36:27;;;;;;;5.63;1.95;;;9.50;97.00;;;;;;4987047;28;20099;-80
2021/05/23 01:38:53;;;;;;;0.98;0.70;;;9.60;97.00;;;;;;4970883;28;20160;-81
2021/05/23 01:41:19;;;;;;;2.05;1.30;;;9.60;97.20;;;;;;4983931;28;20116;-81
2021/05/23 01:43:45;;;;;;;2.33;1.23;;;9.60;96.90;;;;;;4985665;28;20038;-81
2021/05/23 01:46:10;;;;;;;4.18;1.40;;;9.50;97.10;;;;;;4976138;28;20027;-81
2021/05/23 01:48:37;;;;;;;3.90;1.92;;;9.60;97.10;;;;;;4974340;28;20466;-81
2021/05/23 01:51:03;;;;;;;4.30;2.03;;;9.60;97.10;;;;;;4964178;28;20034;-81
2021/05/23 01:53:29;;;;;;;3.67;2.00;;;9.60;96.90;;;;;;4982032;28;20029;-80
2021/05/23 01:55:54;;;;;;;2.08;1.73;;;9.60;97.10;;;;;;4966713;28;20045;-80
2021/05/23 01:58:20;;;;;;;2.60;2.40;;;9.50;97.40;;;;;;4980411;28;20026;-80
2021/05/23 02:00:48;;;;;;;2.00;1.27;;;9.50;97.30;;;;;;4983204;28;20482;-80
2021/05/23 02:03:14;;;;;;;4.05;2.30;;;9.60;97.40;;;;;;4965570;28;20041;-81
2021/05/23 02:05:41;;;;;;;2.38;1.98;;;9.50;97.20;;;;;;4966624;28;20049;-80
2021/05/23 02:08:07;;;;;;;3.78;2.10;;;9.60;97.10;;;;;;4981296;28;20025;-81
2021/05/23 02:10:33;;;;;;;4.43;1.95;;;9.50;97.20;;;;;;4969127;28;20125;-80
2021/05/23 02:13:08;;;;;;;4.65;2.13;;;9.50;97.10;;;;;;4994318;28;20105;-81
2021/05/23 02:15:34;;;;;;;10.13;2.47;;;9.50;97.20;;;;;;4969200;28;20462;-81
2021/05/23 02:18:00;;;;;;;3.35;1.98;;;9.50;97.10;;;;;;4979700;28;20030;-80
2021/05/23 02:20:27;;;;;;;4.45;2.22;;;9.50;97.20;;;;;;4980360;28;20026;-81
2021/05/23 02:22:55;;;;;;;2.80;1.90;;;9.60;97.20;;;;;;4966776;28;20096;-80
2021/05/23 02:25:21;;;;;;;5.10;1.95;;;9.50;97.20;;;;;;4984705;28;20030;-81
2021/05/23 02:27:48;;;;;;;6.20;2.47;;;9.50;97.20;;;;;;4986910;28;20092;-81
2021/05/23 02:30:16;;;;;;;2.90;2.40;;;9.50;97.00;;;;;;4969528;28;20479;-80
2021/05/23 02:32:42;;;;;;;5.55;2.67;;;9.50;97.20;;;;;;4982000;28;20046;-81
2021/05/23 02:35:08;;;;;;;5.38;2.45;;;9.50;97.10;;;;;;4996194;28;20042;-80
2021/05/23 02:37:34;;;;;;;3.17;2.03;;;9.50;97.20;;;;;;4999865;28;20045;-80
2021/05/23 02:40:07;;;;;;;3.03;1.75;;;9.50;97.20;;;;;;4996799;28;20038;-80
2021/05/23 02:42:33;;;;;;;4.47;2.47;;;9.50;97.10;;;;;;4995892;28;20509;-80
2021/05/23 02:44:59;;;;;;;2.90;2.33;;;9.50;97.50;;;;;;4991870;28;20023;-80
2021/05/23 02:47:24;;;;;;;3.38;2.60;;;9.60;96.90;;;;;;4975764;28;20052;-80
2021/05/23 02:49:50;;;;;;;4.10;2.40;;;9.50;97.10;;;;;;4989814;28;20034;-81
2021/05/23 02:52:15;;;;;;;6.20;3.28;;;9.50;97.30;;;;;;4981356;28;20142;-81
2021/05/23 02:54:41;;;;;;;3.20;2.47;;;9.50;97.20;;;;;;4994380;28;20046;-81
2021/05/23 02:57:07;;;;;;;5.55;3.00;;;9.50;97.40;;;;;;4995211;28;20022;-81
2021/05/23 02:59:32;;;;;;;4.40;2.67;;;9.50;97.20;;;;;;4978614;28;20034;-80
2021/05/23 03:01:58;;;;;;;4.65;2.53;;;9.50;97.30;;;;;;4982508;28;20382;-80
2021/05/23 03:04:23;;;;;;;3.83;2.63;;;9.50;97.30;;;;;;4992520;28;20096;-81
2021/05/23 03:06:49;;;;;;;3.95;1.80;;;9.50;97.00;;;;;;4974139;28;20108;-81
2021/05/23 03:09:15;;;;;;;3.33;2.30;;;9.50;97.40;;;;;;4966101;28;20027;-80
2021/05/23 03:11:43;;;;;;;7.72;3.58;;;9.50;97.10;;;;;;4982211;28;20034;-80
2021/05/23 03:14:08;;;;;;;4.18;2.88;;;9.50;97.40;;;;;;4995028;28;20046;-81
2021/05/23 03:16:34;;;;;;;2.70;1.45;;;9.50;97.30;;;;;;4982394;28;20026;-80
2021/05/23 03:18:59;;;;;;;6.15;2.90;;;9.50;97.40;;;;;;4993695;28;20505;-81
2021/05/23 03:21:25;;;;;;;5.53;3.17;;;9.50;97.20;;;;;;4992798;28;20054;-80
2021/05/23 03:23:50;;;;;;;2.50;2.20;;;9.50;97.30;;;;;;4971167;28;20097;-81
2021/05/23 03:26:16;;;;;;;8.15;5.40;;;9.50;97.30;;;;;;4991523;28;20041;-81
2021/05/23 03:28:41;;;;;;;2.60;2.15;;;9.50;97.40;;;;;;4979557;28;20047;-80
2021/05/23 03:31:07;;;;;;;4.93;4.43;;;9.50;97.30;;;;;;4990072;28;20038;-80
2021/05/23 03:33:32;;;;;;;6.30;3.88;;;9.50;97.30;;;;;;4992399;28;20033;-80
2021/05/23 03:35:58;;;;;;;5.35;2.65;;;9.50;97.20;;;;;;4993104;28;20038;-81
2021/05/23 03:38:23;;;;;;;5.88;4.78;;;9.50;97.30;;;;;;4994805;28;20052;-80
2021/05/23 03:40:49;;;;;;;5.18;4.45;;;9.60;97.10;;;;;;4991777;28;20050;-81
2021/05/23 03:43:15;;;;;;;4.72;3.72;;;9.60;97.10;;;;;;4980100;28;20041;-81
2021/05/23 03:45:40;;;;;;;7.20;5.57;;;9.50;97.30;;;;;;4973309;28;20022;-79
2021/05/23 03:48:06;;;;;;;4.38;3.75;;;9.50;97.20;;;;;;4965561;28;20592;-80
2021/05/23 03:50:31;;;;;;;6.80;4.85;;;9.50;97.30;;;;;;4981102;28;20042;-80
2021/05/23 03:52:57;;;;;;;7.15;6.35;;;9.50;97.40;;;;;;4983493;28;20108;-80
2021/05/23 03:55:23;;;;;;;5.95;4.85;;;9.50;97.20;;;;;;4959808;28;20030;-80
2021/05/23 03:57:49;;;;;;;9.00;6.53;;;9.50;97.00;;;;;;4981274;28;20046;-80
2021/05/23 04:00:15;;;;;;;8.38;6.13;;;9.50;97.10;;;;;;4982317;28;20516;-81
2021/05/23 04:02:43;;;;;;;5.50;4.88;;;9.50;97.40;;;;;;4968564;28;20039;-80
2021/05/23 04:05:09;;;;;;;4.70;4.25;;;9.50;97.50;;;;;;4989140;28;20137;-80
2021/05/23 04:07:35;;;;;;;8.55;6.95;;;9.50;97.40;;;;;;4983858;28;20241;-80
2021/05/23 04:10:02;;;;;;;13.57;9.05;;;9.50;97.40;;;;;;4985392;28;20037;-80
2021/05/23 04:12:43;;;;;;;8.80;7.20;;;9.50;97.80;;;;;;4976823;28;20108;-81
2021/05/23 04:15:09;;;;;;;8.05;6.32;;;9.60;97.30;;;;;;4971118;28;20452;-80
2021/05/23 04:17:35;;;;;;;12.77;10.90;;;9.60;97.40;;;;;;4982844;28;20042;-80
2021/05/23 04:20:01;;;;;;;7.05;4.85;;;9.50;97.40;;;;;;4996994;28;20117;-80
2021/05/23 04:22:26;;;;;;;8.82;7.60;;;9.60;97.50;;;;;;4995034;28;20128;-80
2021/05/23 04:24:52;;;;;;;8.68;3.88;;;9.60;97.30;;;;;;4971557;28;20025;-80
2021/05/23 04:27:17;;;;;;;5.47;4.50;;;9.60;97.40;;;;;;4979321;28;20041;-81
2021/05/23 04:29:43;;;;;;;11.43;8.52;;;9.60;97.60;;;;;;4996049;28;20091;-81
2021/05/23 04:32:08;;;;;;;10.43;7.55;;;9.60;97.70;;;;;;4981860;28;20386;-81
2021/05/23 04:34:35;;;;;;;11.82;8.88;;;9.60;97.40;;;;;;4968415;28;20412;-81
2021/05/23 04:37:00;;;;;;;5.13;3.30;;;9.60;97.40;;;;;;4993755;28;20026;-80
2021/05/23 04:39:26;;;;;;;7.97;5.05;;;9.60;97.40;;;;;;4978297;28;20117;-80
2021/05/23 04:41:51;;;;;;;8.60;4.55;;;9.70;97.40;;;;;;4976766;28;20031;-80
2021/05/23 04:44:17;;;;;;;5.47;4.03;;;9.60;97.50;;;;;;4995737;28;20030;-80
2021/05/23 04:46:42;;;;;;;5.88;4.15;;;9.70;97.50;;;;;;4996431;28;20060;-80
2021/05/23 04:49:08;;;;;;;12.57;9.43;;;9.60;97.40;;;;;;4963604;28;20482;-80
2021/05/23 04:51:33;;;;;;;10.10;7.65;;;9.70;97.80;;;;;;4981495;28;20033;-80
2021/05/23 04:53:59;;;;;;;14.35;10.35;;;9.70;97.40;;;;;;4961567;28;20030;-80
2021/05/23 04:56:24;;;;;;;10.60;8.27;;;9.70;97.70;;;;;;4989152;28;20421;-81
2021/05/23 04:58:50;;;;;;;13.75;7.72;;;9.70;97.50;;;;;;4994573;28;20041;-80
2021/05/23 05:01:15;;;;;;;12.80;9.57;;;9.70;97.80;;;;;;4960774;28;20022;-80
2021/05/23 05:03:41;;;;;;;11.50;9.05;;;9.70;97.50;;;;;;4958648;28;20037;-80
2021/05/23 05:06:06;;;;;;;9.70;8.27;;;9.70;97.60;;;;;;4975296;28;20042;-80
2021/05/23 05:08:32;;;;;;;13.63;10.07;;;9.70;97.60;;;;;;4967440;28;20033;-80
2021/05/23 05:10:58;;;;;;;11.90;8.70;;;9.80;97.40;;;;;;4978754;28;20326;-80
2021/05/23 05:13:23;;;;;;;9.55;5.88;;;9.70;97.60;;;;;;4969396;28;20061;-80
2021/05/23 05:15:49;;;;;;;12.63;7.22;;;9.80;97.50;;;;;;4982410;28;20080;-81
2021/05/23 05:18:14;;;;;;;12.35;7.55;;;9.80;97.50;;;;;;4984026;28;20042;-81
2021/05/23 05:20:41;;;;;;;10.90;7.72;;;9.90;97.60;;;;;;4997932;28;20439;-81
2021/05/23 05:23:07;;;;;;;10.70;8.40;;;9.90;97.60;;;;;;4997928;28;20036;-81
2021/05/23 05:25:32;;;;;;;14.18;8.60;;;9.90;97.50;;;;;;4977219;28;20497;-80
2021/05/23 05:27:58;;;;;;;10.70;7.35;;;9.90;97.70;;;;;;4983772;28;20162;-80
2021/05/23 05:30:24;;;;;;;14.10;8.23;;;9.90;97.60;;;;;;4983558;28;20037;-80
2021/05/23 05:32:49;;;;;;;8.88;6.50;;;9.90;98.10;;;;;;4980493;28;20049;-80
2021/05/23 05:35:15;;;;;;;13.27;8.65;;;9.90;98.10;;;;;;4974050;28;20042;-81
2021/05/23 05:37:40;;;;;;;16.13;9.68;;;9.90;98.10;;;;;;4996051;28;20034;-81
2021/05/23 05:40:06;;;;;;;11.18;7.60;;;9.90;97.90;;;;;;4989991;28;20595;-81
2021/05/23 05:42:32;;;;;;;10.57;7.93;;;9.90;97.90;;;;;;4977750;28;20038;-81
2021/05/23 05:44:57;;;;;;;11.23;7.18;;;9.80;97.80;;;;;;4969324;28;20537;-81
2021/05/23 05:47:23;;;;;;;9.88;7.32;;;9.80;98.10;;;;;;4969020;28;20098;-80
2021/05/23 05:49:49;;;;;;;10.10;5.15;;;9.80;98.10;;;;;;4971241;28;20053;-81
2021/05/23 05:52:14;;;;;;;8.27;6.63;;;9.80;98.10;;;;;;4981258;28;20018;-81
2021/05/23 05:54:40;;;;;;;4.53;3.88;;;9.80;98.20;;;;;;4986851;28;20034;-82
2021/05/23 05:57:05;;;;;;;9.48;7.13;;;9.80;98.20;;;;;;4982606;28;20026;-81
2021/05/23 05:59:31;;;;;;;9.43;6.25;;;9.80;98.30;;;;;;5000186;28;20049;-82
2021/05/23 06:01:56;;;;;;;6.03;3.97;;;9.80;98.30;;;;;;4966327;28;21189;-81
2021/05/23 06:04:22;;;;;;;8.18;6.72;;;9.80;98.20;;;;;;4969174;28;20026;-82
2021/05/23 06:06:47;;;;;;;3.03;2.50;;;9.90;98.30;;;;;;4991622;28;20045;-83
2021/05/23 06:09:13;;;;;;;7.85;5.97;;;9.80;98.20;;;;;;4973809;28;20063;-82
2021/05/23 06:11:38;;;;;;;10.23;4.90;;;9.90;98.10;;;;;;4985632;28;20066;-81
2021/05/23 06:14:04;;;;;;;6.10;3.75;;;9.80;98.20;;;;;;4950906;28;20033;-81
2021/05/23 06:16:29;;;;;;;6.40;4.97;;;9.80;98.20;;;;;;4969148;28;20048;-81
2021/05/23 06:18:55;;;;;;;10.57;6.00;;;9.80;98.10;;;;;;4990891;28;20088;-82
2021/05/23 06:21:21;;;;;;;7.68;4.15;;;9.80;98.10;;;;;;4967608;28;20106;-81
2021/05/23 06:23:46;;;;;;;9.20;3.80;;;9.80;98.20;;;;;;4991272;28;20040;-81
2021/05/23 06:26:15;;;;;;;7.68;4.05;;;9.70;98.20;;;;;;4965708;28;20061;-79
2021/05/23 06:28:43;;;;;;;5.97;2.28;;;9.70;98.10;;;;;;4972621;28;20038;-81
2021/05/23 06:31:09;;;;;;;3.28;2.67;;;9.70;98.00;;;;;;4984488;28;20054;-81
2021/05/23 06:33:34;;;;;;;4.28;3.38;;;9.70;98.10;;;;;;4996566;28;20502;-81
2021/05/23 06:36:00;;;;;;;5.07;3.03;;;9.80;98.10;;;;;;4966702;28;20034;-80
2021/05/23 06:38:25;;;;;;;4.97;2.53;;;9.80;98.10;;;;;;4982402;28;20041;-81
2021/05/23 06:40:51;;;;;;;6.45;3.80;;;9.80;98.10;;;;;;4998536;28;20108;-81
2021/05/23 06:43:16;;;;;;;6.40;3.65;;;9.80;98.00;;;;;;4981873;28;20026;-81
2021/05/23 06:45:42;;;;;;;4.75;2.15;;;9.90;98.00;;;;;;4996558;28;20037;-81
2021/05/23 06:48:09;;;;;;;3.20;2.00;;;9.90;98.10;;;;;;4964236;28;20040;-81
2021/05/23 06:50:35;;;;;;;5.32;2.08;;;9.90;98.00;;;;;;4985080;28;20044;-81
2021/05/23 06:53:00;;;;;;;4.72;1.98;;;9.90;97.80;;;;;;4993746;28;20501;-81
2021/05/23 06:55:26;;;;;;;10.45;4.20;;;9.90;97.80;;;;;;4983416;28;20059;-81
2021/05/23 06:57:51;;;;;;;6.15;3.67;;;9.90;97.90;;;;;;4972383;28;20477;-81
2021/05/23 07:00:19;;;;;;;7.28;3.60;;;9.90;97.70;;;;;;4996246;28;20053;-81
2021/05/23 07:02:45;;;;;;;10.60;3.47;;;9.90;97.70;;;;;;4981635;28;20041;-82
2021/05/23 07:05:10;;;;;;;6.60;2.63;;;10.00;97.20;;;;;;4983694;28;20029;-80
2021/05/23 07:07:36;;;;;;;7.57;2.88;;;9.90;97.50;;;;;;4999562;28;20106;-81
2021/05/23 07:10:02;;;;;;;3.30;2.08;;;9.90;97.60;;;;;;4980075;28;20027;-81
2021/05/23 07:12:28;;;;;;;3.65;1.65;;;10.00;97.10;;;;;;4975257;28;20045;-81
2021/05/23 07:14:53;;;;;;;7.78;2.80;;;9.90;97.50;;;;;;4973420;28;20026;-81
2021/05/23 07:17:19;;;;;;;8.18;2.28;;;10.00;97.10;;;;;;4978869;28;20030;-80
2021/05/23 07:19:44;;;;;;;10.57;2.97;;;10.00;97.10;;;;;;4971177;28;20034;-81
2021/05/23 07:22:10;;;;;;;9.07;2.13;;;10.00;97.20;;;;;;4978614;28;20026;-81
2021/05/23 07:24:35;;;;;;;5.53;2.75;;;10.20;97.10;;;;;;4966961;28;20030;-81
2021/05/23 07:27:01;;;;;;;3.28;2.47;;;10.20;97.00;;;;;;4974546;28;20030;-81
2021/05/23 07:29:26;;;;;;;6.20;3.50;;;10.30;96.90;;;;;;4970260;28;20222;-81
2021/05/23 07:31:52;;;;;;;6.97;2.50;;;10.50;96.80;;;;;;4982160;28;20100;-81
2021/05/23 07:34:17;;;;;;;9.15;3.17;;;10.50;96.60;;;;;;4963335;28;20047;-81
2021/05/23 07:36:43;;;;;;;6.53;3.10;;;10.60;96.80;;;;;;4950611;28;20366;-81
2021/05/23 07:39:08;;;;;;;3.88;2.55;;;10.90;96.90;;;;;;4991439;28;20030;-81
2021/05/23 07:41:34;;;;;;;8.52;2.15;;;11.10;96.20;;;;;;4960954;28;20038;-81
2021/05/23 07:43:59;;;;;;;9.15;2.78;;;11.40;96.30;;;;;;4962828;28;20040;-81
2021/05/23 07:46:25;;;;;;;8.27;3.55;;;11.70;95.90;;;;;;4978476;28;20129;-81
2021/05/23 07:48:51;;;;;;;9.57;3.10;;;11.90;96.10;;;;;;4980366;28;20044;-81
2021/05/23 07:51:16;;;;;;;6.95;3.08;;;12.20;96.10;;;;;;4967137;28;20030;-81
2021/05/23 07:53:42;;;;;;;7.70;2.65;;;12.20;95.10;;;;;;4969045;28;20041;-81
2021/05/23 07:56:07;;;;;;;6.85;2.50;;;12.20;95.90;;;;;;4994584;28;20065;-83
2021/05/23 07:58:33;;;;;;;5.53;1.75;;;12.30;94.10;;;;;;4982274;28;20034;-81
2021/05/23 08:00:58;;;;;;;13.95;2.65;;;12.30;94.40;;;;;;4988354;28;20034;-81
2021/05/23 08:03:26;;;;;;;7.80;2.17;;;12.30;94.20;;;;;;4998618;28;20037;-81
2021/05/23 08:05:52;;;;;;;11.93;2.10;;;12.40;94.70;;;;;;4979884;28;20088;-81
2021/05/23 08:08:17;;;;;;;5.55;1.80;;;12.80;93.70;;;;;;4981585;28;20031;-81
2021/05/23 08:10:43;;;;;;;4.28;1.65;;;12.70;93.50;;;;;;4982233;28;20088;-81
2021/05/23 08:13:08;;;;;;;5.05;2.22;;;12.80;93.60;;;;;;4992714;28;20433;-81
2021/05/23 08:15:34;;;;;;;3.13;1.67;;;12.70;93.10;;;;;;4960743;28;20030;-81
2021/05/23 08:18:00;;;;;;;3.55;1.45;;;12.80;93.10;;;;;;4983125;28;20030;-81
2021/05/23 08:20:26;;;;;;;7.15;1.67;;;12.90;92.80;;;;;;4962758;28;20096;-82
2021/05/23 08:22:51;;;;;;;9.25;1.80;;;13.00;92.40;;;;;;4960527;28;20043;-81
2021/05/23 08:25:17;;;;;;;4.53;1.13;;;13.10;92.00;;;;;;4980980;28;20485;-81
2021/05/23 08:27:43;;;;;;;7.22;1.42;;;13.20;91.80;;;;;;4994807;28;20029;-81
2021/05/23 08:30:09;;;;;;;5.10;0.90;;;13.40;91.30;;;;;;4959311;28;20022;-82
2021/05/23 08:32:35;;;;;;;1.90;1.30;;;13.40;89.80;;;;;;4995569;28;20095;-82
2021/05/23 08:35:01;;;;;;;6.95;1.75;;;13.20;89.10;;;;;;4963020;28;20538;-82
2021/05/23 08:37:27;;;;;;;4.57;0.63;;;13.30;90.10;;;;;;4978476;28;20161;-82
2021/05/23 08:39:52;;;;;;;5.03;1.52;;;13.40;88.40;;;;;;4971767;28;20497;-81
2021/05/23 08:42:18;;;;;;;3.92;0.80;;;13.40;89.90;;;;;;4969555;28;20117;-82
2021/05/23 08:44:43;;;;;;;11.80;1.02;;;13.50;88.30;;;;;;4965947;28;20022;-81
2021/05/23 08:47:09;;;;;;;6.32;1.10;;;13.40;86.40;;;;;;4980308;28;20041;-81
2021/05/23 08:49:34;;;;;;;7.00;1.50;;;13.70;86.70;;;;;;4986078;28;20026;-81
2021/05/23 08:52:00;;;;;;;6.43;1.60;;;13.50;87.00;;;;;;4970128;28;20113;-81
2021/05/23 08:54:25;;;;;;;5.15;0.90;;;13.70;87.60;;;;;;5003803;28;20162;-81
2021/05/23 08:56:51;;;;;;;9.43;1.48;;;13.70;87.80;;;;;;4981905;28;20022;-81
2021/05/23 08:59:17;;;;;;;6.07;1.10;;;13.80;87.90;;;;;;4983236;28;20041;-81
2021/05/23 09:01:43;;;;;;;4.45;1.20;;;13.70;85.70;;;;;;4972442;28;20045;-81
2021/05/23 09:04:13;;;;;;;3.45;1.15;;;13.70;87.90;;;;;;4991450;28;20030;-81
2021/05/23 09:06:39;;;;;;;2.45;0.70;;;13.70;88.20;;;;;;4960435;28;20041;-82
2021/05/23 09:09:09;;;;;;;5.72;0.88;;;13.90;87.30;;;;;;4956997;28;20030;-81
2021/05/23 09:11:34;;;;;;;6.32;2.20;;;13.90;87.80;;;;;;4983127;28;20642;-82
2021/05/23 09:14:00;;;;;;;4.18;1.20;;;13.60;87.00;;;;;;4982456;28;20037;-82
2021/05/23 09:16:34;;;;;;;2.22;0.77;;;13.60;86.00;;;;;;4999228;28;20425;-81
2021/05/23 09:19:00;;;;;;;4.18;1.10;;;13.60;87.00;;;;;;4996255;28;20564;-82
2021/05/23 09:21:31;;;;;;;5.53;1.10;;;13.80;86.20;;;;;;4998711;28;20034;-81
2021/05/23 09:24:03;;;;;;;1.67;0.82;;;14.00;88.70;;;;;;4973534;28;20045;-83
2021/05/23 09:26:30;;;;;;;3.35;1.00;;;13.80;85.30;;;;;;4968624;28;20120;-83
2021/05/23 09:29:05;;;;;;;3.72;1.08;;;14.00;85.30;;;;;;4990117;28;20112;-83
2021/05/23 09:31:31;;;;;;;1.80;0.73;;;14.30;83.30;;;;;;4984621;28;20033;-83
2021/05/23 09:33:57;;;;;;;5.55;1.08;;;14.50;84.00;;;;;;4986048;28;20038;-83
2021/05/23 09:36:22;;;;;;;5.15;1.20;;;14.90;80.40;;;;;;4992951;28;20427;-83
2021/05/23 09:38:53;;;;;;;4.05;1.10;;;15.00;77.10;;;;;;4973712;28;20555;-83
2021/05/23 09:41:20;;;;;;;3.53;0.93;;;15.30;78.70;;;;;;4970447;28;20033;-83
2021/05/23 09:43:46;;;;;;;6.88;1.17;;;15.70;77.20;;;;;;4970793;28;20133;-83
2021/05/23 09:46:12;;;;;;;5.82;1.45;;;16.20;76.60;;;;;;4973254;28;20449;-83
2021/05/23 09:48:38;;;;;;;1.13;0.52;;;16.40;76.50;;;;;;4979710;28;20240;-83
2021/05/23 09:51:14;;;;;;;4.78;1.15;;;16.60;74.10;;;;;;4965797;28;20125;-83
2021/05/23 09:53:42;;;;;;;1.80;0.40;;;16.90;74.30;;;;;;4978446;28;20041;-83
2021/05/23 09:56:12;;;;;;;2.72;0.93;;;17.30;72.50;;;;;;4980864;28;20038;-83
2021/05/23 09:58:41;;;;;;;3.17;1.15;;;17.20;69.20;;;;;;4973616;28;20038;-83
2021/05/23 10:01:08;;;;;;;3.15;0.50;;;17.60;68.20;;;;;;4970244;28;20034;-83
2021/05/23 10:03:37;;;;;;;4.40;0.68;;;17.30;69.20;;;;;;4966268;28;20093;-82
2021/05/23 10:06:03;;;;;;;3.60;0.68;;;17.50;69.40;;;;;;4982230;28;20174;-83
2021/05/23 10:08:29;;;;;;;7.03;1.02;;;17.90;68.70;;;;;;4997183;28;20400;-83
2021/05/23 10:10:54;;;;;;;3.33;0.52;;;17.40;68.20;;;;;;4988738;28;20041;-84
2021/05/23 10:13:21;;;;;;;2.83;0.77;;;16.80;66.90;;;;;;4964883;28;20093;-83
2021/05/23 10:15:47;;;;;;;4.25;0.90;;;16.70;68.80;;;;;;4972818;28;20038;-83
2021/05/23 10:18:12;;;;;;;5.05;0.82;;;16.80;68.70;;;;;;4966403;28;20525;-83
2021/05/23 10:20:38;;;;;;;5.95;0.80;;;16.70;68.30;;;;;;4972550;28;20557;-83
2021/05/23 10:23:17;;;;;;;1.63;0.45;;;16.20;66.50;;;;;;4981800;28;20142;-83
2021/05/23 10:25:50;;;;;;;3.97;0.80;;;16.10;69.40;;;;;;4985277;28;20069;-83
2021/05/23 10:28:16;;;;;;;7.90;1.25;;;16.20;71.30;;;;;;4978759;28;20061;-83
2021/05/23 10:30:54;;;;;;;4.40;1.05;;;16.10;69.30;;;;;;4999471;28;20042;-83
2021/05/23 10:33:20;;;;;;;1.67;0.75;;;16.50;72.80;;;;;;4963502;28;20878;-82
2021/05/23 10:35:47;;;;;;;2.72;0.43;;;16.60;70.60;;;;;;4973135;28;20081;-83
2021/05/23 10:38:14;;;;;;;4.60;0.75;;;16.50;70.10;;;;;;4996647;28;20041;-83
2021/05/23 10:41:04;;;;;;;3.55;0.75;;;16.20;69.10;;;;;;4977136;28;20097;-83
2021/05/23 10:43:34;;;;;;;2.67;0.75;;;16.90;73.90;;;;;;4957175;28;20046;-83
2021/05/23 10:46:11;;;;;;;1.52;0.40;;;16.40;69.00;;;;;;4964320;28;20487;-82
2021/05/23 10:48:37;;;;;;;2.42;0.70;;;16.10;68.80;;;;;;4982051;28;20036;-83
2021/05/23 10:51:15;;;;;;;2.95;0.80;;;16.30;70.10;;;;;;4978865;28;20481;-83
2021/05/23 10:53:41;;;;;;;4.38;1.27;;;16.20;68.00;;;;;;4984340;28;20046;-82
2021/05/23 10:56:22;;;;;;;7.60;0.98;;;16.20;67.70;;;;;;4994479;28;20403;-83
2021/05/23 10:59:00;;;;;;;2.33;0.60;;;16.10;67.70;;;;;;4964026;28;20046;-81
2021/05/23 11:01:45;;;;;;;3.42;0.50;;;16.20;67.80;;;;;;4983171;28;20490;-83
2021/05/23 11:04:11;;;;;;;3.78;0.95;;;16.00;65.40;;;;;;4977460;28;20486;-83
2021/05/23 11:06:37;;;;;;;2.70;1.20;;;16.00;67.50;;;;;;4994784;28;20040;-83
2021/05/23 11:09:11;;;;;;;3.80;1.05;;;16.30;67.90;;;;;;4963736;28;20046;-83
2021/05/23 11:11:37;;;;;;;4.72;0.85;;;16.50;67.70;;;;;;4989337;28;20038;-83
2021/05/23 11:14:31;;;;;;;3.53;1.15;;;16.80;68.10;;;;;;4978697;28;20556;-83
2021/05/23 11:16:57;;;;;;;3.38;0.98;;;17.20;66.60;;;;;;4993118;28;20034;-82
2021/05/23 11:19:25;;;;;;;3.85;0.90;;;17.30;66.40;;;;;;4981652;28;20624;-83
2021/05/23 11:21:53;;;;;;;5.97;0.60;;;17.10;65.50;;;;;;4984960;28;20057;-83
2021/05/23 11:24:18;;;;;;;1.73;0.75;;;17.20;66.80;;;;;;4996231;28;20158;-83
2021/05/23 11:26:44;;;;;;;2.38;0.65;;;17.80;68.50;;;;;;4980027;28;20061;-83
2021/05/23 11:29:10;;;;;;;3.85;0.80;;;17.40;65.00;;;;;;4981833;28;20275;-83
2021/05/23 11:31:41;;;;;;;1.45;0.73;;;17.70;65.00;;;;;;4980741;28;20037;-83
2021/05/23 11:34:07;;;;;;;3.35;0.77;;;17.80;66.10;;;;;;4965428;28;20037;-83
2021/05/23 11:36:37;;;;;;;1.10;0.60;;;18.40;66.70;;;;;;4984032;28;20490;-83
2021/05/23 11:39:11;;;;;;;2.22;0.60;;;18.20;62.20;;;;;;4983568;28;20188;-82
2021/05/23 11:41:37;;;;;;;2.95;0.88;;;18.20;63.30;;;;;;4969286;28;20034;-82
2021/05/23 11:44:05;;;;;;;5.10;0.80;;;18.50;64.80;;;;;;4980588;28;20042;-82
2021/05/23 11:46:31;;;;;;;3.10;1.00;;;18.40;65.20;;;;;;4970744;28;20030;-82
2021/05/23 11:48:56;;;;;;;3.00;0.75;;;18.20;63.20;;;;;;4996929;28;20033;-82
2021/05/23 11:51:26;;;;;;;3.55;0.82;;;18.00;62.30;;;;;;4963831;28;20074;-82
2021/05/23 11:53:54;;;;;;;3.15;0.70;;;18.10;62.50;;;;;;4967684;28;20035;-82
2021/05/23 11:56:24;;;;;;;3.67;0.70;;;17.70;64.20;;;;;;4976639;28;20031;-82
2021/05/23 11:58:50;;;;;;;6.43;1.20;;;17.20;61.50;;;;;;4965772;28;20035;-81
2021/05/23 12:01:17;;;;;;;1.55;0.65;;;17.80;64.60;;;;;;4982286;28;20038;-81
2021/05/23 12:04:13;;;;;;;2.90;0.65;;;18.10;61.50;;;;;;5001228;28;20064;-81
2021/05/23 12:06:41;;;;;;;2.65;0.95;;;18.20;59.00;;;;;;4968965;28;20041;-81
2021/05/23 12:09:11;;;;;;;0.95;0.40;;;18.30;59.60;;;;;;4981083;28;20408;-81
2021/05/23 12:11:41;;;;;;;1.03;0.50;;;18.40;59.10;;;;;;4309045;28;10000470;-80
2021/05/23 12:14:17;;;;;;;3.53;0.90;;;18.70;60.00;;;;;;4264407;28;10001317;-80
2021/05/23 12:16:43;;;;;;;2.17;0.73;;;18.60;60.60;;;;;;4966288;28;20027;-80
2021/05/23 12:19:08;;;;;;;2.92;0.47;;;18.70;57.80;;;;;;4989035;28;20045;-80
2021/05/23 12:21:34;;;;;;;2.80;0.60;;;18.50;58.00;;;;;;4961746;28;20033;-80
2021/05/23 12:23:59;;;;;;;2.95;1.20;;;18.60;57.20;;;;;;4973306;28;20037;-81
2021/05/23 12:26:26;;;;;;;4.35;0.90;;;19.20;60.10;;;;;;4960314;28;20044;-80
2021/05/23 12:28:52;;;;;;;1.42;0.65;;;19.30;58.60;;;;;;4978660;28;20511;-79
2021/05/23 12:31:22;;;;;;;4.53;0.65;;;18.70;56.00;;;;;;4983191;28;20128;-80
2021/05/23 12:33:56;;;;;;;2.55;0.88;;;18.70;55.70;;;;;;4990531;28;20552;-80
2021/05/23 12:36:25;;;;;;;3.38;0.65;;;19.10;58.00;;;;;;4966458;28;20038;-80
2021/05/23 12:38:58;;;;;;;1.10;0.50;;;19.40;54.50;;;;;;4967313;28;20165;-79
2021/05/23 12:41:36;;;;;;;3.13;0.85;;;19.60;54.10;;;;;;4990019;28;20027;-79
2021/05/23 12:44:02;;;;;;;2.88;1.02;;;20.20;57.10;;;;;;4988046;28;20030;-78
2021/05/23 12:46:28;;;;;;;2.88;0.63;;;20.20;54.40;;;;;;4966382;28;20061;-78
2021/05/23 12:48:53;;;;;;;1.30;0.52;;;20.00;52.90;;;;;;4949790;28;20486;-79
2021/05/23 12:51:23;;;;;;;1.05;0.50;;;20.30;53.50;;;;;;4973212;28;20034;-78